Time;durP1;ratioP1;P1;durP2;ratioP2;P2;SDS_P1;SDS_P2;PMS_P1;PMS_P2;Temp;Humidity;BMP_temperature;BMP_pressure;BME280_temperature;BME280_humidity;BME280_pressure;Samples;Min_cycle;Max_cycle;Signal;HPM_P1;HPM_P2
2022/12/10 05:30:06;;;;;;;17.65;11.27;;;0.30;76.10;;;;;;6109225;23;20073;31
2022/12/10 05:32:33;;;;;;;12.75;9.45;;;0.40;76.10;;;;;;4902773;29;20041;-80
2022/12/10 05:34:58;;;;;;;17.38;11.60;;;0.30;75.90;;;;;;4918494;29;20076;-80
2022/12/10 05:37:24;;;;;;;15.73;11.50;;;0.20;75.90;;;;;;4904271;29;20377;-80
2022/12/10 05:39:50;;;;;;;17.70;10.20;;;0.30;75.90;;;;;;4920535;29;20055;-79
2022/12/10 05:42:15;;;;;;;19.27;10.77;;;0.20;75.90;;;;;;4921267;29;20028;-79
2022/12/10 05:44:41;;;;;;;18.35;10.43;;;0.20;75.70;;;;;;4920680;29;20424;-80
2022/12/10 05:47:06;;;;;;;17.25;11.27;;;0.20;75.80;;;;;;4921166;29;20581;-80
2022/12/10 05:49:32;;;;;;;15.07;9.63;;;0.20;76.00;;;;;;4921063;29;20070;-79
2022/12/10 05:51:58;;;;;;;15.60;10.35;;;0.20;76.10;;;;;;4917614;29;20103;-80
2022/12/10 05:54:23;;;;;;;11.23;9.18;;;0.20;76.10;;;;;;4904178;29;20124;-81
2022/12/10 05:56:49;;;;;;;12.00;9.93;;;0.20;76.10;;;;;;4902172;29;20037;-79
2022/12/10 05:59:15;;;;;;;11.25;8.90;;;0.30;76.10;;;;;;4885275;29;20032;-77
2022/12/10 06:01:41;;;;;;;17.27;8.23;;;0.20;76.00;;;;;;4907333;29;20093;-78
2022/12/10 06:04:07;;;;;;;17.10;9.70;;;0.20;76.10;;;;;;4928957;29;20035;-76
2022/12/10 06:06:36;;;;;;;18.23;10.73;;;0.20;76.40;;;;;;4936436;29;20027;-79
2022/12/10 06:09:03;;;;;;;12.15;9.82;;;0.20;76.40;;;;;;4920650;29;20031;-82
2022/12/10 06:11:29;;;;;;;12.20;9.38;;;0.20;76.50;;;;;;4929650;29;20767;-80
2022/12/10 06:13:56;;;;;;;13.85;10.10;;;0.20;76.60;;;;;;4940007;29;20036;-81
2022/12/10 06:16:23;;;;;;;17.25;11.68;;;0.20;76.50;;;;;;4939735;29;20027;-82
2022/12/10 06:18:49;;;;;;;16.70;11.23;;;0.20;76.40;;;;;;4921443;29;20107;-81
2022/12/10 06:21:16;;;;;;;13.50;8.27;;;0.20;76.40;;;;;;4939167;29;20069;-77
2022/12/10 06:23:42;;;;;;;12.48;10.95;;;0.20;75.90;;;;;;4929320;29;20031;-83
2022/12/10 06:26:13;;;;;;;15.60;11.60;;;0.10;75.70;;;;;;4917854;29;20135;-83
2022/12/10 06:28:39;;;;;;;17.10;8.52;;;0.10;75.40;;;;;;4901640;29;20043;-87
2022/12/10 06:31:05;;;;;;;13.82;9.85;;;0.10;75.30;;;;;;4892931;29;20417;-86
2022/12/10 06:33:32;;;;;;;23.30;12.27;;;0.00;74.80;;;;;;4921075;29;20139;-83
2022/12/10 06:35:58;;;;;;;10.90;9.77;;;0.10;75.10;;;;;;4920323;29;20032;-85
2022/12/10 06:38:23;;;;;;;12.73;10.68;;;0.00;74.90;;;;;;4922907;29;20121;-88
2022/12/10 06:40:49;;;;;;;16.17;11.25;;;0.10;75.10;;;;;;4919901;29;20072;-85
2022/12/10 06:43:15;;;;;;;19.17;11.10;;;0.10;74.90;;;;;;4920976;29;20028;-82
2022/12/10 06:45:41;;;;;;;16.38;11.73;;;0.10;75.10;;;;;;4916391;29;20032;-84
2022/12/10 06:48:08;;;;;;;13.77;10.43;;;0.10;75.10;;;;;;4896792;29;20177;-87
2022/12/10 06:50:34;;;;;;;16.63;10.35;;;0.10;75.40;;;;;;4909042;29;20095;-86
2022/12/10 06:53:00;;;;;;;22.00;13.35;;;0.10;75.20;;;;;;4909351;29;20044;-87
2022/12/10 06:55:26;;;;;;;14.23;10.93;;;0.00;75.30;;;;;;4921667;29;20047;-86
2022/12/10 06:57:52;;;;;;;18.30;12.18;;;0.00;75.70;;;;;;4920041;29;20031;-87
2022/12/10 07:00:18;;;;;;;20.30;12.35;;;0.00;76.00;;;;;;4901756;29;20024;-85
2022/12/10 07:02:44;;;;;;;24.48;12.40;;;0.00;76.10;;;;;;4916264;29;20032;-86
2022/12/10 07:05:10;;;;;;;22.48;13.43;;;0.10;75.70;;;;;;4914514;29;20035;-86
2022/12/10 07:07:36;;;;;;;14.05;12.57;;;0.10;75.70;;;;;;4903767;29;20186;-86
2022/12/10 07:10:02;;;;;;;22.63;14.40;;;0.10;75.80;;;;;;4911397;29;20060;-86
2022/12/10 07:12:27;;;;;;;17.60;12.80;;;0.10;76.00;;;;;;4918763;29;20032;-86
2022/12/10 07:14:53;;;;;;;21.17;12.05;;;0.10;76.10;;;;;;4912952;29;20390;-87
2022/12/10 07:17:19;;;;;;;19.02;12.90;;;0.10;75.80;;;;;;4916626;29;20024;-83
2022/12/10 07:19:44;;;;;;;21.15;12.68;;;0.00;75.80;;;;;;4918912;29;20028;-85
2022/12/10 07:22:10;;;;;;;23.50;14.95;;;0.00;75.50;;;;;;4919221;29;20527;-84
2022/12/10 07:24:36;;;;;;;16.48;13.50;;;0.00;75.60;;;;;;4917939;29;20484;-85
2022/12/10 07:27:05;;;;;;;17.85;14.15;;;0.00;75.50;;;;;;4901993;29;20512;-86
2022/12/10 07:29:31;;;;;;;19.63;14.05;;;0.00;75.50;;;;;;4918029;29;20089;-85
2022/12/10 07:31:57;;;;;;;31.15;13.50;;;0.00;75.70;;;;;;4918248;29;20048;-84
2022/12/10 07:34:22;;;;;;;20.00;12.52;;;0.00;75.70;;;;;;4912881;29;20496;-84
2022/12/10 07:36:48;;;;;;;23.73;12.45;;;0.00;75.50;;;;;;4914429;29;20115;-86
2022/12/10 07:39:17;;;;;;;25.73;13.02;;;0.00;75.50;;;;;;4910306;29;20032;-84
2022/12/10 07:41:52;;;;;;;12.48;11.20;;;0.00;75.60;;;;;;4915651;29;20021;-87
2022/12/10 07:44:24;;;;;;;20.48;12.82;;;0.00;75.50;;;;;;4914698;29;20118;-86
2022/12/10 07:46:52;;;;;;;23.38;13.35;;;0.00;75.50;;;;;;4915925;29;20479;-87
2022/12/10 07:49:18;;;;;;;26.02;14.95;;;0.00;75.00;;;;;;4910968;29;20110;-87
2022/12/10 07:51:47;;;;;;;26.95;16.50;;;0.00;75.30;;;;;;4911218;29;20024;-85
2022/12/10 07:54:13;;;;;;;22.23;13.95;;;0.00;75.30;;;;;;4918228;29;20036;-86
2022/12/10 07:56:39;;;;;;;24.95;14.27;;;0.00;75.30;;;;;;4918551;29;20043;-85
2022/12/10 07:59:05;;;;;;;29.63;15.93;;;0.00;75.20;;;;;;4913416;29;20125;-85
2022/12/10 08:01:30;;;;;;;24.95;17.48;;;0.00;75.30;;;;;;4908003;29;20808;-85
2022/12/10 08:03:56;;;;;;;30.90;16.52;;;0.00;75.10;;;;;;4911369;29;20098;-84
2022/12/10 08:06:24;;;;;;;34.75;19.08;;;0.00;75.30;;;;;;4900101;29;20039;-84
2022/12/10 08:08:50;;;;;;;33.22;20.30;;;0.00;75.10;;;;;;4911637;29;20029;-84
2022/12/10 08:11:17;;;;;;;31.17;17.98;;;0.00;75.00;;;;;;4917106;29;20062;-84
2022/12/10 08:13:43;;;;;;;21.48;16.83;;;0.00;74.80;;;;;;4906990;29;20035;-86
2022/12/10 08:16:19;;;;;;;28.35;18.15;;;0.00;74.70;;;;;;4917749;29;20039;-84
2022/12/10 08:18:45;;;;;;;30.55;17.35;;;0.00;75.20;;;;;;4916457;29;20433;-84
2022/12/10 08:21:17;;;;;;;31.60;17.15;;;0.10;74.90;;;;;;4900221;29;20040;-85
2022/12/10 08:23:43;;;;;;;30.95;18.60;;;0.10;75.00;;;;;;4903368;29;20473;-85
2022/12/10 08:26:12;;;;;;;31.92;19.23;;;0.10;75.00;;;;;;4899154;29;20067;-85
2022/12/10 08:28:38;;;;;;;32.15;18.67;;;0.10;75.20;;;;;;4897852;29;20033;-84
2022/12/10 08:31:04;;;;;;;24.23;15.38;;;0.20;75.10;;;;;;4917550;29;20108;-84
2022/12/10 08:33:32;;;;;;;34.80;20.15;;;0.20;75.20;;;;;;4917901;29;20063;-85
2022/12/10 08:36:01;;;;;;;34.40;19.98;;;0.20;75.30;;;;;;4912661;29;20040;-86
2022/12/10 08:38:27;;;;;;;32.67;18.35;;;0.20;75.30;;;;;;4905430;29;20034;-85
2022/12/10 08:40:53;;;;;;;43.17;23.00;;;0.30;75.40;;;;;;4912378;29;20488;-86
2022/12/10 08:43:18;;;;;;;42.13;22.67;;;0.30;75.50;;;;;;4913423;29;20157;-85
2022/12/10 08:45:44;;;;;;;29.80;18.05;;;0.30;75.30;;;;;;4919687;29;20067;-85
2022/12/10 08:48:10;;;;;;;23.65;17.15;;;0.30;75.70;;;;;;4913830;29;20039;-86
2022/12/10 08:50:37;;;;;;;22.52;14.93;;;0.40;75.70;;;;;;4921369;29;20032;-82
2022/12/10 08:53:03;;;;;;;34.00;17.98;;;0.40;75.60;;;;;;4905242;29;20044;-85
2022/12/10 08:55:28;;;;;;;38.05;20.33;;;0.50;75.80;;;;;;4921145;29;20035;-85
2022/12/10 08:57:55;;;;;;;31.55;20.13;;;0.50;76.20;;;;;;4918344;29;20028;-85
2022/12/10 09:00:21;;;;;;;21.38;16.23;;;0.50;76.30;;;;;;4920578;29;20521;-85
2022/12/10 09:02:46;;;;;;;30.58;18.33;;;0.50;76.50;;;;;;4915873;29;20412;-85
2022/12/10 09:05:12;;;;;;;26.08;16.02;;;0.50;76.60;;;;;;4903834;29;20096;-84
2022/12/10 09:07:38;;;;;;;23.63;17.38;;;0.50;76.60;;;;;;4921457;29;20126;-85
2022/12/10 09:10:04;;;;;;;19.33;14.65;;;0.40;77.20;;;;;;4918170;29;20040;-85
2022/12/10 09:12:32;;;;;;;21.00;14.77;;;0.50;77.40;;;;;;4927131;29;20025;-86
2022/12/10 09:14:57;;;;;;;31.42;16.83;;;0.60;77.60;;;;;;4890382;29;20032;-86
2022/12/10 09:17:23;;;;;;;25.08;14.13;;;0.70;76.90;;;;;;4921796;29;20032;-86
2022/12/10 09:19:49;;;;;;;30.92;16.73;;;0.70;76.40;;;;;;4921150;29;20040;-86
2022/12/10 09:22:14;;;;;;;28.73;14.70;;;0.70;76.20;;;;;;4899946;29;20051;-86
2022/12/10 09:24:40;;;;;;;21.45;13.68;;;0.80;76.30;;;;;;4914420;29;20124;-85
2022/12/10 09:27:06;;;;;;;21.98;14.75;;;0.80;76.10;;;;;;4898365;29;20032;-86
2022/12/10 09:29:31;;;;;;;23.33;15.40;;;0.90;76.30;;;;;;4914793;29;20037;-85
2022/12/10 09:31:57;;;;;;;31.63;15.98;;;0.90;76.30;;;;;;4861538;29;20056;-85
2022/12/10 09:34:23;;;;;;;23.02;14.93;;;0.90;76.30;;;;;;4916260;29;20039;-86
2022/12/10 09:36:48;;;;;;;25.08;15.60;;;1.00;76.20;;;;;;4920023;29;20036;-81
2022/12/10 09:39:14;;;;;;;24.30;17.25;;;1.00;76.30;;;;;;4921435;29;20032;-85
2022/12/10 09:41:54;;;;;;;25.45;14.40;;;1.10;76.20;;;;;;4904476;29;20104;-83
2022/12/10 09:44:52;;;;;;;24.52;15.23;;;1.10;76.30;;;;;;4915630;29;20036;-84
2022/12/10 09:47:18;;;;;;;22.58;13.00;;;1.20;76.20;;;;;;4853240;29;20048;-84
2022/12/10 09:50:09;;;;;;;20.52;13.55;;;1.20;76.20;;;;;;4919012;29;20028;-84
2022/12/10 09:52:43;;;;;;;19.42;13.52;;;1.30;76.50;;;;;;4914672;29;20114;-81
2022/12/10 09:55:32;;;;;;;20.77;14.27;;;1.40;76.80;;;;;;4916800;29;20079;-87
2022/12/10 09:57:59;;;;;;;26.20;13.98;;;1.50;76.60;;;;;;4897566;29;20048;-83
2022/12/10 10:00:40;;;;;;;22.33;13.35;;;1.60;76.40;;;;;;4911765;29;20470;-83
2022/12/10 10:03:12;;;;;;;18.40;13.05;;;1.60;76.90;;;;;;4915894;29;20025;-81
2022/12/10 10:05:41;;;;;;;25.75;15.55;;;1.70;76.70;;;;;;4914065;29;20052;-79
2022/12/10 10:08:29;;;;;;;18.83;13.95;;;1.70;76.60;;;;;;4912978;29;20027;-79
2022/12/10 10:10:55;;;;;;;22.25;14.07;;;1.70;76.90;;;;;;4902638;29;20045;-79
2022/12/10 10:13:38;;;;;;;26.10;15.77;;;1.70;76.70;;;;;;4912332;29;20111;-79
2022/12/10 10:16:26;;;;;;;23.80;13.45;;;1.80;76.90;;;;;;4892136;29;20511;-79
2022/12/10 10:18:59;;;;;;;20.60;13.85;;;1.80;77.00;;;;;;4912965;29;20028;-80
2022/12/10 10:21:36;;;;;;;25.02;14.45;;;1.90;77.10;;;;;;4912293;29;20032;-79
2022/12/10 10:24:03;;;;;;;27.55;16.67;;;2.00;77.00;;;;;;4912458;29;20501;-79
2022/12/10 10:26:29;;;;;;;20.77;12.63;;;2.00;77.00;;;;;;4909356;29;20453;-79
2022/12/10 10:29:04;;;;;;;24.00;13.55;;;2.20;77.30;;;;;;4905248;29;20096;-79
2022/12/10 10:31:32;;;;;;;17.85;12.18;;;2.10;77.40;;;;;;4897999;29;20579;-79
2022/12/10 10:34:01;;;;;;;28.33;15.40;;;2.20;77.30;;;;;;4911435;29;20032;-80
2022/12/10 10:36:33;;;;;;;32.13;19.38;;;2.20;77.50;;;;;;4898533;29;20041;-80
2022/12/10 10:39:29;;;;;;;29.02;18.42;;;2.20;77.50;;;;;;4886607;29;20063;-80
2022/12/10 10:41:58;;;;;;;25.42;15.27;;;2.20;77.60;;;;;;4887249;29;20504;-80
2022/12/10 10:44:36;;;;;;;27.05;16.33;;;2.30;77.40;;;;;;4909464;29;20663;-81
2022/12/10 10:47:02;;;;;;;27.80;16.30;;;2.40;77.30;;;;;;4876094;29;20605;-81
2022/12/10 10:49:31;;;;;;;23.42;13.27;;;2.50;77.30;;;;;;4871194;29;20036;-81
2022/12/10 10:52:05;;;;;;;24.02;14.55;;;2.60;77.50;;;;;;4907602;29;20040;-81
2022/12/10 10:54:37;;;;;;;23.25;13.57;;;2.60;77.50;;;;;;4919386;29;20052;-80
2022/12/10 10:57:25;;;;;;;16.20;12.07;;;2.60;77.50;;;;;;4899460;29;20128;-80
2022/12/10 10:59:55;;;;;;;23.25;12.18;;;2.70;77.60;;;;;;4916096;29;20032;-80
2022/12/10 11:02:30;;;;;;;21.08;13.70;;;2.70;77.80;;;;;;4907826;29;20021;-80
2022/12/10 11:05:00;;;;;;;21.90;14.40;;;2.70;78.10;;;;;;4895518;29;20059;-80
2022/12/10 11:07:34;;;;;;;19.58;13.55;;;2.70;78.40;;;;;;4911251;29;20428;-80
2022/12/10 11:10:02;;;;;;;19.65;11.90;;;2.70;78.20;;;;;;4919260;29;20039;-80
2022/12/10 11:12:35;;;;;;;19.98;12.38;;;2.70;78.20;;;;;;4913791;29;20450;-79
2022/12/10 11:15:01;;;;;;;20.00;12.07;;;2.70;78.00;;;;;;4909767;29;20524;-80
2022/12/10 11:17:27;;;;;;;14.18;9.75;;;2.80;77.80;;;;;;4913136;29;20040;-80
2022/12/10 11:20:19;;;;;;;18.27;12.02;;;2.90;77.90;;;;;;4893987;29;20032;-80
2022/12/10 11:22:55;;;;;;;16.80;12.48;;;2.90;77.60;;;;;;4917750;29;20020;-78
2022/12/10 11:25:42;;;;;;;24.13;12.27;;;2.90;77.70;;;;;;4901188;29;20027;-85
2022/12/10 11:28:28;;;;;;;13.65;10.80;;;3.00;77.70;;;;;;4898402;29;20032;-86
2022/12/10 11:31:13;;;;;;;16.45;11.63;;;3.10;77.90;;;;;;4890055;29;20131;-88
2022/12/10 11:33:59;;;;;;;15.00;11.68;;;3.20;78.00;;;;;;4919399;29;20079;-87
2022/12/10 11:36:52;;;;;;;17.40;11.85;;;3.20;78.30;;;;;;4870732;29;20044;-86
2022/12/10 11:39:20;;;;;;;18.88;12.48;;;3.20;78.00;;;;;;4918329;29;20682;-80
2022/12/10 11:41:57;;;;;;;21.33;12.27;;;3.20;77.80;;;;;;4901521;29;20057;-83
2022/12/10 11:44:29;;;;;;;20.73;12.30;;;3.20;77.90;;;;;;4910760;29;20488;-88
2022/12/10 11:47:05;;;;;;;20.17;13.50;;;3.30;78.20;;;;;;4914334;29;20035;-82
2022/12/10 11:49:58;;;;;;;16.08;12.68;;;3.30;78.20;;;;;;4904102;29;20032;-85
2022/12/10 11:52:43;;;;;;;20.50;13.48;;;3.40;78.20;;;;;;4913692;29;20559;-88
2022/12/10 11:55:46;;;;;;;23.67;13.80;;;3.40;77.80;;;;;;4915841;29;20038;-88
2022/12/10 11:58:22;;;;;;;19.73;12.18;;;3.60;78.40;;;;;;4898654;29;20094;-82
2022/12/10 12:01:25;;;;;;;18.38;12.07;;;3.60;78.00;;;;;;4919209;29;20036;-80
2022/12/10 12:04:13;;;;;;;20.92;12.73;;;3.60;78.00;;;;;;4901221;29;20131;-91
2022/12/10 12:07:10;;;;;;;25.30;13.40;;;3.70;78.20;;;;;;4919774;29;20020;-87
2022/12/10 12:09:48;;;;;;;19.60;10.60;;;3.70;77.80;;;;;;4907789;29;20033;-88
2022/12/10 12:12:17;;;;;;;17.58;10.73;;;3.70;78.00;;;;;;4921184;29;20084;-86
2022/12/10 12:14:56;;;;;;;15.63;10.98;;;3.80;78.00;;;;;;4922880;29;20032;-90
2022/12/10 12:17:27;;;;;;;16.58;12.68;;;3.90;77.90;;;;;;4906213;29;20028;-89
2022/12/10 12:20:15;;;;;;;;;;;3.90;77.60;;;;;;4923170;29;20043;-88
2022/12/10 12:22:46;;;;;;;16.45;11.27;;;4.00;77.60;;;;;;4911463;29;19911;-90
2022/12/10 12:25:23;;;;;;;19.10;10.88;;;4.10;77.50;;;;;;4920818;29;20024;-85
2022/12/10 12:27:55;;;;;;;12.10;9.70;;;4.10;77.40;;;;;;4904266;29;20028;-82
2022/12/10 12:30:22;;;;;;;20.23;10.35;;;4.20;77.30;;;;;;4913200;29;20100;-85
2022/12/10 12:33:06;;;;;;;18.13;11.95;;;4.20;77.30;;;;;;4917622;29;20145;-77
2022/12/10 12:35:41;;;;;;;16.50;11.23;;;4.20;77.20;;;;;;4914258;29;20488;-79
2022/12/10 12:38:19;;;;;;;13.32;9.48;;;4.30;77.00;;;;;;4903705;29;20065;-79
2022/12/10 12:41:24;;;;;;;13.90;9.48;;;4.30;77.00;;;;;;4915342;29;20427;-81
2022/12/10 12:44:15;;;;;;;9.23;8.18;;;4.40;76.70;;;;;;4896463;29;20040;-80
2022/12/10 12:46:45;;;;;;;14.52;9.73;;;4.50;76.20;;;;;;4912419;29;20063;-80
2022/12/10 12:49:18;;;;;;;15.03;10.63;;;4.50;76.10;;;;;;4884652;29;20036;-82
2022/12/10 12:51:52;;;;;;;12.18;8.23;;;4.50;76.00;;;;;;4920113;29;20292;-81
2022/12/10 12:54:17;;;;;;;14.68;7.95;;;4.60;76.00;;;;;;4914092;29;20032;-80
2022/12/10 12:57:21;;;;;;;17.35;9.25;;;4.60;75.90;;;;;;4896150;29;20028;-81
2022/12/10 13:00:04;;;;;;;9.43;7.35;;;4.70;75.70;;;;;;4895619;29;20120;-80
2022/12/10 13:02:30;;;;;;;13.13;7.90;;;4.70;75.40;;;;;;4907324;29;20032;-81
2022/12/10 13:04:56;;;;;;;12.40;6.35;;;4.80;75.40;;;;;;4924809;29;20027;-81
2022/12/10 13:07:22;;;;;;;7.13;5.65;;;4.80;75.10;;;;;;4923650;29;20409;-81
2022/12/10 13:09:50;;;;;;;12.10;5.60;;;4.80;74.50;;;;;;4914401;29;20023;-81
2022/12/10 13:12:29;;;;;;;7.60;6.00;;;5.00;73.60;;;;;;4929774;29;20024;-81
2022/12/10 13:15:12;;;;;;;7.30;5.55;;;5.00;73.20;;;;;;4927799;29;20493;-81
2022/12/10 13:17:38;;;;;;;7.10;6.03;;;5.10;72.60;;;;;;4929787;29;20036;-81
2022/12/10 13:20:26;;;;;;;9.25;6.20;;;5.20;72.30;;;;;;4926055;29;20373;-81
2022/12/10 13:22:59;;;;;;;9.52;5.70;;;5.10;72.40;;;;;;4909295;29;20039;-81
2022/12/10 13:25:40;;;;;;;9.40;6.50;;;5.20;71.90;;;;;;4926851;29;20016;-82
2022/12/10 13:28:35;;;;;;;9.95;6.72;;;5.20;71.60;;;;;;4929877;29;20567;-82
2022/12/10 13:31:14;;;;;;;7.70;5.32;;;5.30;71.60;;;;;;4917637;29;20039;-81
2022/12/10 13:33:47;;;;;;;11.40;6.90;;;5.40;70.90;;;;;;4900923;29;20488;-81
2022/12/10 13:36:19;;;;;;;7.40;6.15;;;5.40;70.90;;;;;;4901985;29;20147;-78
2022/12/10 13:39:15;;;;;;;12.50;8.00;;;5.40;70.90;;;;;;4913052;29;20036;-80
2022/12/10 13:45:22;;;;;;;8.63;6.32;;;5.50;69.80;;;;;;4914877;29;20047;-80
2022/12/10 13:47:49;;;;;;;10.13;7.25;;;5.50;69.50;;;;;;4916793;29;20064;-80
2022/12/10 13:50:29;;;;;;;7.10;6.30;;;5.60;69.60;;;;;;4910433;29;20028;-79
2022/12/10 13:53:26;;;;;;;11.35;6.20;;;5.60;69.60;;;;;;4915111;29;20028;-79
2022/12/10 13:56:02;;;;;;;10.27;5.20;;;5.50;69.20;;;;;;4916582;29;20048;-81
2022/12/10 13:58:54;;;;;;;7.80;5.32;;;5.60;69.50;;;;;;4892319;29;20461;-77
2022/12/10 14:01:32;;;;;;;7.20;6.05;;;5.60;69.20;;;;;;4906613;29;20028;-79
2022/12/10 14:04:18;;;;;;;5.72;4.53;;;5.60;69.30;;;;;;4917591;29;20036;-79
2022/12/10 14:06:44;;;;;;;7.05;3.97;;;5.50;69.30;;;;;;4920499;29;20403;-79
2022/12/10 14:09:22;;;;;;;5.20;3.40;;;5.60;69.30;;;;;;4910804;29;20067;-80
2022/12/10 14:11:56;;;;;;;6.93;3.80;;;5.60;67.70;;;;;;4913249;29;20036;-78
2022/12/10 14:14:36;;;;;;;5.18;3.00;;;5.60;67.10;;;;;;4916179;29;20063;-79
2022/12/10 14:17:10;;;;;;;;;;;5.60;66.80;;;;;;4916214;29;20092;-79
2022/12/10 14:19:36;;;;;;;6.28;3.85;;;5.60;67.30;;;;;;4912741;29;19966;-78
2022/12/10 14:22:19;;;;;;;9.98;4.22;;;5.50;67.40;;;;;;4909012;29;20147;-78
2022/12/10 14:24:49;;;;;;;7.00;4.28;;;5.40;68.20;;;;;;4902583;29;20442;-78
2022/12/10 14:27:17;;;;;;;10.23;5.10;;;5.40;69.00;;;;;;4914638;29;20024;-79
2022/12/10 14:29:48;;;;;;;4.40;3.30;;;5.40;68.90;;;;;;4899034;29;20040;-77
2022/12/10 14:32:17;;;;;;;6.35;4.60;;;5.40;69.30;;;;;;4919722;29;20052;-78
2022/12/10 14:34:47;;;;;;;7.07;4.32;;;5.30;69.30;;;;;;4914166;29;20046;-78
2022/12/10 14:37:14;;;;;;;7.15;4.90;;;5.30;69.70;;;;;;4904096;29;20167;-77
2022/12/10 14:39:40;;;;;;;5.65;4.25;;;5.30;70.10;;;;;;4911176;29;20036;-77
2022/12/10 14:42:12;;;;;;;5.20;4.50;;;5.30;70.20;;;;;;4905461;29;20500;-78
2022/12/10 14:44:39;;;;;;;7.28;4.43;;;5.30;70.10;;;;;;4910243;29;20038;-78
2022/12/10 14:47:16;;;;;;;7.93;4.00;;;5.30;70.20;;;;;;4912341;29;20488;-78
2022/12/10 14:49:45;;;;;;;4.80;3.72;;;5.20;69.90;;;;;;4886969;29;20132;-77
2022/12/10 14:52:17;;;;;;;4.68;3.63;;;5.30;69.70;;;;;;4920459;29;20034;-78
2022/12/10 14:54:43;;;;;;;6.53;4.70;;;5.30;69.50;;;;;;4926722;29;20126;-78
2022/12/10 14:57:25;;;;;;;8.07;4.95;;;5.30;69.40;;;;;;4914710;29;20032;-77
2022/12/10 15:00:15;;;;;;;6.65;4.47;;;5.20;69.60;;;;;;4913104;29;20032;-78
2022/12/10 15:02:47;;;;;;;6.47;4.75;;;5.20;69.60;;;;;;4920034;29;20064;-77
2022/12/10 15:05:18;;;;;;;6.85;5.07;;;5.20;69.60;;;;;;4919194;29;20071;-77
2022/12/10 15:08:00;;;;;;;4.07;3.13;;;5.20;69.50;;;;;;4914146;29;20035;-77
2022/12/10 15:10:31;;;;;;;6.90;4.88;;;5.20;69.70;;;;;;4919533;29;20040;-77
2022/12/10 15:12:57;;;;;;;6.50;4.57;;;5.20;69.50;;;;;;4907054;29;20114;-77
2022/12/10 15:15:39;;;;;;;7.03;4.00;;;5.20;69.70;;;;;;4914697;29;20107;-77
2022/12/10 15:18:14;;;;;;;4.20;3.78;;;5.20;69.70;;;;;;4904847;29;20052;-77
2022/12/10 15:20:49;;;;;;;4.97;4.28;;;5.20;69.90;;;;;;4910667;29;20029;-78
2022/12/10 15:23:14;;;;;;;7.40;4.43;;;5.10;69.90;;;;;;4917617;29;20063;-80
2022/12/10 15:26:09;;;;;;;4.65;4.03;;;5.10;70.00;;;;;;4901181;29;20071;-79
2022/12/10 15:28:37;;;;;;;5.43;4.40;;;5.00;70.20;;;;;;4897843;29;20155;-77
2022/12/10 15:31:33;;;;;;;6.18;4.53;;;5.00;70.40;;;;;;4913085;29;20043;-77
2022/12/10 15:34:01;;;;;;;5.32;4.00;;;4.90;70.60;;;;;;4914206;29;20046;-77
2022/12/10 15:36:35;;;;;;;6.07;4.80;;;4.90;70.60;;;;;;4911387;29;20031;-77
2022/12/10 15:39:25;;;;;;;5.65;4.13;;;4.90;70.50;;;;;;4892715;29;20051;-77
2022/12/10 15:41:56;;;;;;;5.43;4.00;;;4.80;70.70;;;;;;4910066;29;20028;-77
2022/12/10 15:44:32;;;;;;;5.57;4.68;;;4.70;70.90;;;;;;4913905;29;20052;-76
2022/12/10 15:47:02;;;;;;;5.70;4.38;;;4.70;71.00;;;;;;4916578;29;20032;-76
2022/12/10 15:49:29;;;;;;;5.57;3.70;;;4.60;71.10;;;;;;4904136;29;20024;-77
2022/12/10 15:51:56;;;;;;;7.72;4.63;;;4.50;71.40;;;;;;4913026;29;20048;-76
2022/12/10 15:54:38;;;;;;;5.18;4.57;;;4.50;71.60;;;;;;4912751;29;20440;-77
2022/12/10 15:57:23;;;;;;;8.07;5.63;;;4.30;71.80;;;;;;4911095;29;20037;-76
2022/12/10 15:59:53;;;;;;;10.15;6.15;;;4.30;71.80;;;;;;4906488;29;20051;-77
2022/12/10 16:02:34;;;;;;;6.97;5.45;;;4.20;72.00;;;;;;4912624;29;20031;-77
2022/12/10 16:05:00;;;;;;;10.55;6.55;;;4.20;72.30;;;;;;4909191;29;20035;-77
2022/12/10 16:07:26;;;;;;;12.32;7.57;;;4.20;72.50;;;;;;4912438;29;20032;-77
2022/12/10 16:09:52;;;;;;;12.00;8.02;;;4.20;72.50;;;;;;4885072;29;20095;-77
2022/12/10 16:12:19;;;;;;;11.90;7.90;;;4.20;72.80;;;;;;4911565;29;20028;-77
2022/12/10 16:14:52;;;;;;;13.00;7.18;;;4.20;72.90;;;;;;4916859;29;20035;-77
2022/12/10 16:17:18;;;;;;;10.95;7.40;;;4.10;73.20;;;;;;4917886;29;20036;-85
2022/12/10 16:19:44;;;;;;;15.50;8.63;;;4.10;73.20;;;;;;4916954;29;20040;-77
2022/12/10 16:22:10;;;;;;;11.88;8.32;;;4.00;73.30;;;;;;4917840;29;20044;-85
2022/12/10 16:24:35;;;;;;;18.75;10.00;;;3.90;73.30;;;;;;4912871;29;20029;-80
2022/12/10 16:27:01;;;;;;;17.83;10.18;;;3.90;73.80;;;;;;4918751;29;20035;-78
2022/12/10 16:29:29;;;;;;;16.52;10.00;;;3.90;74.10;;;;;;4917716;29;20043;-79
2022/12/10 16:31:55;;;;;;;16.00;9.73;;;3.90;74.40;;;;;;4918660;29;20062;-77
2022/12/10 16:34:20;;;;;;;20.27;11.05;;;3.90;74.40;;;;;;4912429;29;20032;-79
2022/12/10 16:36:46;;;;;;;14.23;9.05;;;3.90;74.50;;;;;;4903967;29;20056;-78
2022/12/10 16:39:13;;;;;;;14.75;9.25;;;3.90;74.70;;;;;;4918078;29;20055;-77
2022/12/10 16:41:39;;;;;;;16.15;10.40;;;3.90;74.70;;;;;;4916911;29;20052;-76
2022/12/10 16:44:05;;;;;;;10.93;8.60;;;3.90;74.60;;;;;;4916904;29;20047;-80
2022/12/10 16:46:35;;;;;;;13.30;10.57;;;3.80;74.60;;;;;;4913317;29;20402;-77
2022/12/10 16:49:01;;;;;;;11.98;8.02;;;3.80;74.70;;;;;;4901646;29;20040;-78
2022/12/10 16:51:29;;;;;;;10.55;8.60;;;3.80;74.90;;;;;;4917886;29;20091;-76
2022/12/10 16:53:55;;;;;;;14.50;10.98;;;3.70;75.00;;;;;;4931938;29;20035;-79
2022/12/10 16:56:21;;;;;;;16.33;10.82;;;3.70;75.00;;;;;;4912982;29;20115;-77
2022/12/10 16:58:47;;;;;;;15.23;9.77;;;3.70;75.20;;;;;;4917585;29;20608;-80
2022/12/10 17:01:22;;;;;;;11.90;8.45;;;3.70;75.20;;;;;;4903140;29;20506;-74
2022/12/10 17:03:51;;;;;;;14.45;9.05;;;3.70;75.30;;;;;;4921219;29;20059;-79
2022/12/10 17:06:18;;;;;;;16.38;9.63;;;3.60;75.40;;;;;;4915996;29;20042;-78
2022/12/10 17:08:44;;;;;;;14.95;10.52;;;3.60;75.50;;;;;;4914402;29;20040;-80
2022/12/10 17:14:05;;;;;;;19.92;12.98;;;3.60;75.80;;;;;;4914527;29;20082;-82
2022/12/10 17:16:32;;;;;;;16.60;11.68;;;3.50;76.00;;;;;;4913776;29;20020;-78
2022/12/10 17:18:57;;;;;;;21.92;15.38;;;3.50;76.20;;;;;;4906082;29;20028;-77
2022/12/10 17:21:23;;;;;;;19.45;15.68;;;3.50;76.40;;;;;;4905362;29;20031;-78
2022/12/10 17:23:49;;;;;;;28.77;22.25;;;3.50;76.80;;;;;;4906212;29;20061;-76
2022/12/10 17:26:38;;;;;;;40.42;23.10;;;3.50;76.70;;;;;;4905826;29;20024;-78
2022/12/10 17:29:17;;;;;;;70.00;43.75;;;3.40;76.50;;;;;;4910207;29;20035;-85
2022/12/10 17:31:44;;;;;;;90.55;53.17;;;3.40;76.60;;;;;;4912281;29;20086;-76
2022/12/10 17:34:12;;;;;;;236.32;140.10;;;3.40;76.90;;;;;;4913899;29;20067;-77
2022/12/10 17:36:39;;;;;;;124.07;70.05;;;3.30;77.20;;;;;;4912603;29;20150;-78
2022/12/10 17:39:05;;;;;;;125.93;78.13;;;3.30;77.60;;;;;;4909187;29;20083;-76
2022/12/10 17:41:31;;;;;;;109.53;65.53;;;3.30;77.40;;;;;;4914919;29;20032;-76
2022/12/10 17:43:57;;;;;;;86.60;52.42;;;3.30;77.30;;;;;;4912294;29;20028;-76
2022/12/10 17:46:24;;;;;;;67.28;40.45;;;3.30;77.20;;;;;;4876840;29;20119;-76
2022/12/10 17:48:51;;;;;;;79.60;46.13;;;3.30;77.10;;;;;;4917020;29;20043;-78
2022/12/10 17:51:17;;;;;;;58.42;34.35;;;3.20;77.20;;;;;;4915651;29;20150;-76
2022/12/10 17:53:42;;;;;;;49.13;28.20;;;3.20;77.40;;;;;;4920978;29;20028;-77
2022/12/10 17:56:16;;;;;;;48.78;27.05;;;3.20;77.40;;;;;;4885788;29;20037;-78
2022/12/10 17:58:42;;;;;;;40.90;24.40;;;3.20;77.00;;;;;;4884876;29;20040;-78
2022/12/10 18:01:09;;;;;;;37.95;25.30;;;3.10;77.00;;;;;;4915306;29;20028;-77
2022/12/10 18:03:38;;;;;;;38.65;23.10;;;3.10;77.00;;;;;;4921114;29;20395;-77
2022/12/10 18:06:28;;;;;;;46.45;28.27;;;3.10;77.00;;;;;;4920202;29;20036;-78
2022/12/10 18:09:00;;;;;;;44.05;25.27;;;3.00;76.80;;;;;;4896593;29;20032;-78
2022/12/10 18:11:30;;;;;;;34.85;24.08;;;3.00;76.80;;;;;;4919899;29;20028;-78
2022/12/10 18:13:56;;;;;;;;;;;2.90;76.70;;;;;;4917966;29;20044;-81
2022/12/10 18:16:29;;;;;;;29.95;23.40;;;2.90;78.00;;;;;;4915748;29;20395;-78
2022/12/10 18:18:56;;;;;;;35.05;21.70;;;2.90;78.20;;;;;;4916402;29;20107;-76
2022/12/10 18:21:22;;;;;;;26.17;17.25;;;2.90;78.30;;;;;;4920307;29;20414;-76
2022/12/10 18:23:51;;;;;;;25.85;14.77;;;2.90;78.30;;;;;;4920517;29;20025;-76
2022/12/10 18:26:20;;;;;;;27.40;17.40;;;2.90;78.40;;;;;;4919085;29;20059;-76
2022/12/10 18:28:48;;;;;;;27.95;20.38;;;2.90;78.30;;;;;;4920126;29;20047;-78
2022/12/10 18:31:18;;;;;;;31.55;21.10;;;2.90;77.90;;;;;;4919285;29;20855;-78
2022/12/10 18:33:47;;;;;;;45.10;22.70;;;2.90;77.50;;;;;;4919817;29;20039;-78
2022/12/10 18:36:25;;;;;;;34.90;22.80;;;2.90;77.30;;;;;;4920476;29;20029;-76
2022/12/10 18:38:53;;;;;;;44.15;24.77;;;2.80;77.10;;;;;;4920278;29;20031;-80
2022/12/10 18:41:19;;;;;;;35.35;24.83;;;2.80;77.20;;;;;;4895013;29;20024;-79